Time;durP1;ratioP1;P1;durP2;ratioP2;P2;SDS_P1;SDS_P2;PMS_P1;PMS_P2;Temp;Humidity;BMP_temperature;BMP_pressure;BME280_temperature;BME280_humidity;BME280_pressure;Samples;Min_cycle;Max_cycle;Signal;HPM_P1;HPM_P2
2023/04/28 00:01:15;;;;;;;8.43;3.70;;;;;;;8.59;57.07;100922.06;5111180;28;20601;-61
2023/04/28 00:03:41;;;;;;;11.95;4.00;;;;;;;8.56;57.17;100914.25;5110737;28;20032;-61
2023/04/28 00:06:07;;;;;;;8.60;4.78;;;;;;;8.66;56.84;100924.19;5110872;27;20023;-61
2023/04/28 00:08:32;;;;;;;6.97;3.97;;;;;;;8.66;56.83;100926.00;5109657;28;20057;-61
2023/04/28 00:10:57;;;;;;;8.07;4.57;;;;;;;8.66;56.21;100923.31;5109838;28;20031;-61
2023/04/28 00:13:23;;;;;;;8.95;4.70;;;;;;;8.56;56.79;100901.75;5109511;28;20099;-60
2023/04/28 00:15:49;;;;;;;6.40;3.95;;;;;;;8.60;56.81;100918.41;5109609;28;20034;-61
2023/04/28 00:18:15;;;;;;;7.63;3.75;;;;;;;8.66;56.85;100921.53;5109348;28;20031;-61
2023/04/28 00:20:40;;;;;;;8.05;4.28;;;;;;;8.64;56.45;100922.59;5109090;28;20091;-61
2023/04/28 00:23:06;;;;;;;7.63;4.18;;;;;;;8.67;56.61;100930.38;5109536;28;20039;-61
2023/04/28 00:25:31;;;;;;;6.93;3.80;;;;;;;8.66;56.48;100923.31;5109315;27;20106;-60
2023/04/28 00:27:57;;;;;;;7.78;4.28;;;;;;;8.66;56.28;100923.31;5109073;28;20099;-60
2023/04/28 00:30:24;;;;;;;7.90;3.67;;;;;;;8.62;56.22;100921.84;5109316;28;20073;-61
2023/04/28 00:32:49;;;;;;;7.72;3.88;;;;;;;8.65;56.08;100924.31;5109330;28;20373;-60
2023/04/28 00:35:15;;;;;;;8.48;4.25;;;;;;;8.70;56.07;100943.53;5109354;28;20102;-61
2023/04/28 00:37:40;;;;;;;6.25;4.22;;;;;;;8.68;55.93;100927.59;5108850;28;20102;-60
2023/04/28 00:40:06;;;;;;;13.80;4.38;;;;;;;8.71;56.19;100938.09;5088804;28;20085;-60
2023/04/28 00:42:32;;;;;;;8.57;4.22;;;;;;;8.73;55.47;100935.28;5088864;28;20483;-60
2023/04/28 00:44:57;;;;;;;10.80;4.63;;;;;;;8.76;55.98;100932.41;5088895;28;20020;-61
2023/04/28 00:47:23;;;;;;;7.15;4.57;;;;;;;8.72;55.37;100923.78;5088768;28;20035;-60
2023/04/28 00:49:49;;;;;;;8.23;4.53;;;;;;;8.74;55.74;100924.50;5106738;28;20259;-61
2023/04/28 00:52:15;;;;;;;9.52;4.35;;;;;;;8.73;55.54;100924.59;5109367;28;20510;-60
2023/04/28 00:54:41;;;;;;;10.05;4.93;;;;;;;8.74;55.22;100921.00;5108817;28;20046;-60
2023/04/28 00:57:08;;;;;;;7.25;4.45;;;;;;;8.72;55.97;100923.78;5108963;28;20425;-61
2023/04/28 00:59:34;;;;;;;7.35;4.43;;;;;;;8.72;55.37;100925.56;5107886;28;20127;-61
2023/04/28 01:02:00;;;;;;;7.78;4.65;;;;;;;8.70;55.36;100917.66;5106525;28;20496;-61
2023/04/28 01:04:28;;;;;;;8.05;4.50;;;;;;;8.61;55.67;100910.28;5109086;28;20380;-60
2023/04/28 01:06:54;;;;;;;9.82;5.00;;;;;;;8.63;55.19;100920.88;5108497;28;20070;-60
2023/04/28 01:09:20;;;;;;;9.98;4.97;;;;;;;8.61;55.42;100918.31;5107379;28;20431;-60
2023/04/28 01:11:45;;;;;;;7.20;4.68;;;;;;;8.62;55.64;100928.06;5108641;28;20032;-60
2023/04/28 01:14:11;;;;;;;8.43;4.38;;;;;;;8.59;56.42;100925.59;5108820;28;20070;-67
2023/04/28 01:16:37;;;;;;;11.23;4.93;;;;;;;8.56;57.08;100930.28;5108714;28;20449;-66
2023/04/28 01:19:06;;;;;;;7.65;4.60;;;;;;;8.47;56.87;100928.25;5108546;28;20434;-66
2023/04/28 01:21:33;;;;;;;9.27;4.30;;;;;;;8.43;57.31;100932.09;5108482;28;20414;-66
2023/04/28 01:23:59;;;;;;;9.48;4.93;;;;;;;8.42;57.21;100943.75;5108846;28;20019;-66
2023/04/28 01:26:25;;;;;;;7.93;5.20;;;;;;;8.36;57.33;100933.50;5106861;28;20019;-66
2023/04/28 01:28:50;;;;;;;11.98;5.47;;;;;;;8.19;57.51;100918.56;5107327;28;20031;-66
2023/04/28 01:31:16;;;;;;;8.88;4.97;;;;;;;8.21;58.16;100931.81;5107788;28;20475;-66
2023/04/28 01:33:41;;;;;;;9.27;4.97;;;;;;;8.21;58.18;100947.84;5112268;28;20031;-66
2023/04/28 01:36:07;;;;;;;8.90;5.13;;;;;;;8.13;57.64;100936.84;5112799;28;20023;-66
2023/04/28 01:38:32;;;;;;;10.63;5.60;;;;;;;8.05;58.21;100931.16;5112241;28;20083;-66
2023/04/28 01:40:59;;;;;;;12.93;5.88;;;;;;;8.06;58.54;100944.41;5112654;28;20042;-66
2023/04/28 01:43:24;;;;;;;11.82;5.60;;;;;;;8.04;58.55;100950.81;5112305;28;20406;-66
2023/04/28 01:45:50;;;;;;;13.10;5.63;;;;;;;7.87;58.92;100927.06;5113115;28;20135;-66
2023/04/28 01:48:16;;;;;;;8.82;5.00;;;;;;;7.81;58.90;100924.81;5112602;28;20023;-66
2023/04/28 01:50:41;;;;;;;10.68;5.28;;;;;;;7.86;59.50;100954.72;5112239;28;20042;-66
2023/04/28 01:53:06;;;;;;;13.13;5.45;;;;;;;7.80;60.05;100955.97;5110906;28;20023;-66
2023/04/28 01:55:32;;;;;;;12.70;5.72;;;;;;;7.74;60.73;100964.41;5110762;28;20514;-66
2023/04/28 01:57:57;;;;;;;12.70;5.75;;;;;;;7.65;60.79;100954.34;5112383;27;20475;-66
2023/04/28 02:00:23;;;;;;;9.77;5.80;;;;;;;7.55;61.11;100947.91;5112347;28;20391;-66
2023/04/28 02:02:48;;;;;;;9.55;5.95;;;;;;;7.48;61.45;100953.72;5112219;28;20024;-67
2023/04/28 02:05:14;;;;;;;10.90;6.30;;;;;;;7.28;61.47;100931.00;5112221;28;20027;-67
2023/04/28 02:07:40;;;;;;;10.80;6.68;;;;;;;7.31;62.28;100954.81;5112084;28;20156;-67
2023/04/28 02:10:06;;;;;;;9.65;6.32;;;;;;;7.31;62.99;100962.81;5112170;28;20039;-67
2023/04/28 02:12:32;;;;;;;10.90;6.70;;;;;;;7.19;63.14;100946.75;5111889;28;20024;-67
2023/04/28 02:14:58;;;;;;;12.35;6.90;;;;;;;7.20;63.84;100960.00;5111895;27;20023;-66
2023/04/28 02:17:23;;;;;;;9.77;6.05;;;;;;;7.14;64.07;100948.84;5110755;28;20103;-67
2023/04/28 02:19:55;;;;;;;11.02;6.80;;;;;;;7.07;64.02;100955.50;5110510;28;20479;-66
2023/04/28 02:22:20;;;;;;;12.88;7.15;;;;;;;6.95;64.51;100942.00;5111926;28;20023;-67
2023/04/28 02:24:46;;;;;;;10.45;6.97;;;;;;;6.96;64.96;100959.72;5111292;28;20059;-66
2023/04/28 02:27:12;;;;;;;11.57;7.28;;;;;;;6.90;64.95;100952.09;5111822;27;20015;-67
2023/04/28 02:29:37;;;;;;;11.20;6.93;;;;;;;6.79;65.12;100951.94;5111434;28;20030;-66
2023/04/28 02:32:03;;;;;;;15.15;7.38;;;;;;;6.80;66.02;100961.63;5110451;28;20019;-67
2023/04/28 02:34:29;;;;;;;11.88;8.10;;;;;;;6.77;66.30;100961.81;5111312;28;20024;-67
2023/04/28 02:36:54;;;;;;;11.68;7.28;;;;;;;6.75;66.23;100973.53;5110028;28;20541;-67
2023/04/28 02:39:25;;;;;;;16.27;8.07;;;;;;;6.74;66.01;100971.84;5111416;28;20050;-67
2023/04/28 02:41:51;;;;;;;12.65;7.80;;;;;;;6.70;66.06;100970.28;5110234;28;20066;-67
2023/04/28 02:44:16;;;;;;;11.15;7.38;;;;;;;6.70;66.24;100967.63;5109927;28;20502;-67
2023/04/28 02:46:42;;;;;;;13.10;7.10;;;;;;;6.65;66.57;100967.91;5111102;28;20039;-67
2023/04/28 02:49:07;;;;;;;19.67;8.50;;;;;;;6.56;66.73;100954.28;5111627;28;20027;-67
2023/04/28 02:51:33;;;;;;;11.43;7.45;;;;;;;6.64;66.91;100966.19;5111099;28;20231;-67
2023/04/28 02:53:58;;;;;;;18.63;8.68;;;;;;;6.60;66.87;100970.00;5111063;28;20058;-67
2023/04/28 02:56:24;;;;;;;16.08;8.30;;;;;;;6.56;67.35;100970.28;5111247;28;20030;-66
2023/04/28 02:58:49;;;;;;;17.33;10.18;;;;;;;6.53;67.53;100966.00;5111024;28;20029;-67
2023/04/28 03:01:15;;;;;;;23.35;12.75;;;;;;;6.49;67.45;100971.59;5111120;27;20024;-67
2023/04/28 03:03:41;;;;;;;27.27;16.20;;;;;;;6.48;67.11;100961.91;5110510;28;20062;-67
2023/04/28 03:06:06;;;;;;;34.10;17.98;;;;;;;6.40;67.01;100958.84;5111134;28;20038;-67
2023/04/28 03:08:32;;;;;;;28.67;16.83;;;;;;;6.46;66.83;100969.13;5110635;28;20036;-67
2023/04/28 03:10:57;;;;;;;24.60;15.40;;;;;;;6.46;67.20;100972.66;5110989;28;20099;-66
2023/04/28 03:13:23;;;;;;;23.35;13.95;;;;;;;6.45;67.03;100975.41;5110780;28;20100;-67
2023/04/28 03:15:48;;;;;;;19.75;12.18;;;;;;;6.30;67.24;100960.34;5110908;27;20027;-67
2023/04/28 03:18:14;;;;;;;19.90;10.75;;;;;;;6.31;67.47;100959.38;5110661;28;20019;-67
2023/04/28 03:20:39;;;;;;;19.15;11.18;;;;;;;6.40;67.28;100977.47;5109067;27;20020;-66
2023/04/28 03:23:05;;;;;;;15.80;9.82;;;;;;;6.28;67.54;100968.44;5110181;28;20561;-67
2023/04/28 03:25:30;;;;;;;15.80;9.02;;;;;;;6.40;67.18;100993.47;5110746;28;20625;-67
2023/04/28 03:27:55;;;;;;;17.17;8.82;;;;;;;6.34;67.70;100983.19;5110793;28;20035;-67
2023/04/28 03:30:21;;;;;;;13.75;8.38;;;;;;;6.37;67.95;100991.84;5109791;28;20028;-67
2023/04/28 03:32:46;;;;;;;14.18;9.35;;;;;;;6.35;67.68;100993.75;5108532;28;20065;-67
2023/04/28 03:35:12;;;;;;;14.38;10.18;;;;;;;6.33;67.53;100987.66;5109560;28;20454;-66
2023/04/28 03:37:38;;;;;;;17.67;9.90;;;;;;;6.29;68.16;100994.09;5109393;28;20027;-66
2023/04/28 03:40:03;;;;;;;18.80;12.13;;;;;;;6.27;67.91;100995.16;5109686;27;20503;-67
2023/04/28 03:42:29;;;;;;;19.10;11.70;;;;;;;6.22;68.44;100990.09;5109403;28;20472;-67
2023/04/28 03:44:55;;;;;;;15.45;11.02;;;;;;;6.19;68.46;100994.75;5108220;28;20498;-67
2023/04/28 03:47:20;;;;;;;17.73;11.73;;;;;;;6.15;68.87;100993.19;5106759;28;20024;-67
2023/04/28 03:49:45;;;;;;;20.88;11.63;;;;;;;6.13;69.47;100998.63;5107043;28;20027;-67
2023/04/28 03:52:11;;;;;;;16.38;10.93;;;;;;;6.06;70.24;100996.44;5109387;28;20019;-67
2023/04/28 03:54:36;;;;;;;15.95;10.57;;;;;;;6.01;70.86;100987.84;5108863;28;20046;-67
2023/04/28 03:57:03;;;;;;;18.23;10.88;;;;;;;6.01;70.97;100991.38;5109058;28;20020;-67
2023/04/28 03:59:28;;;;;;;18.45;10.65;;;;;;;5.99;70.83;100993.25;5109154;28;20034;-67
2023/04/28 04:01:54;;;;;;;17.45;11.27;;;;;;;5.92;71.18;100994.56;5108318;28;20032;-67
2023/04/28 04:04:19;;;;;;;17.25;10.77;;;;;;;5.94;71.80;100997.97;5109192;28;20030;-67
2023/04/28 04:06:45;;;;;;;17.33;10.13;;;;;;;5.82;71.84;100985.41;5109209;27;20391;-67
2023/04/28 04:09:11;;;;;;;16.23;10.40;;;;;;;5.86;72.28;101000.25;5109302;28;20027;-68
2023/04/28 04:11:36;;;;;;;18.73;10.63;;;;;;;5.87;72.21;101001.09;5109261;27;20150;-68
2023/04/28 04:14:01;;;;;;;20.05;10.57;;;;;;;5.89;72.70;100992.06;5108429;28;20110;-68
2023/04/28 04:16:28;;;;;;;15.80;10.25;;;;;;;5.85;73.07;100979.91;5109311;28;20039;-66
2023/04/28 04:18:53;;;;;;;17.80;9.82;;;;;;;5.92;72.62;100978.59;5109580;28;20031;-68
2023/04/28 04:21:19;;;;;;;17.80;9.75;;;;;;;6.08;72.63;100999.84;5108874;28;20027;-61
2023/04/28 04:23:44;;;;;;;17.88;9.95;;;;;;;6.17;72.12;101004.63;5109526;28;20403;-61
2023/04/28 04:26:10;;;;;;;16.67;10.20;;;;;;;6.28;71.60;101005.72;5109574;28;20036;-61
2023/04/28 04:28:35;;;;;;;15.77;10.32;;;;;;;6.33;70.74;100998.31;5109363;28;20037;-61
2023/04/28 04:31:02;;;;;;;19.73;10.38;;;;;;;6.47;70.67;100995.69;5106524;28;20499;-60
2023/04/28 04:33:27;;;;;;;17.23;9.40;;;;;;;6.67;69.80;101008.66;5106429;28;20023;-61
2023/04/28 04:35:53;;;;;;;16.27;9.27;;;;;;;6.80;69.51;101014.94;5107695;28;20031;-61
2023/04/28 04:38:18;;;;;;;16.23;9.30;;;;;;;6.97;68.67;101005.91;5108851;28;20048;-61
2023/04/28 04:40:44;;;;;;;15.25;8.82;;;;;;;7.07;68.45;101000.84;5109230;28;20047;-61
2023/04/28 04:43:09;;;;;;;13.77;8.63;;;;;;;7.14;67.28;100986.19;5109212;28;20016;-60
2023/04/28 04:45:36;;;;;;;17.48;7.93;;;;;;;7.47;66.53;101024.91;5108500;28;20652;-61
2023/04/28 04:48:02;;;;;;;12.57;7.65;;;;;;;7.62;65.63;101018.59;5107884;28;20031;-60
2023/04/28 04:50:28;;;;;;;12.88;7.30;;;;;;;7.80;64.76;101014.72;5107710;28;20035;-61
2023/04/28 04:52:55;;;;;;;18.13;7.90;;;;;;;7.98;63.91;101012.66;5108933;28;20019;-60
2023/04/28 04:55:21;;;;;;;13.52;7.70;;;;;;;8.07;62.96;100999.56;5109021;28;20035;-61
2023/04/28 04:57:46;;;;;;;15.32;8.13;;;;;;;8.42;62.09;101014.09;5107585;28;20036;-60
2023/04/28 05:00:12;;;;;;;14.95;8.10;;;;;;;8.67;60.49;101015.94;5109062;28;20030;-60
2023/04/28 05:02:38;;;;;;;11.63;6.70;;;;;;;8.83;60.71;100992.53;5108434;28;20051;-60
2023/04/28 05:05:05;;;;;;;14.20;8.50;;;;;;;9.15;59.41;100996.47;5100624;28;20447;-61
2023/04/28 05:07:30;;;;;;;14.38;8.20;;;;;;;9.50;58.23;101010.84;5105969;28;20055;-61
2023/04/28 05:09:56;;;;;;;11.30;7.22;;;;;;;9.71;56.59;100995.91;5108782;28;20101;-60
2023/04/28 05:12:21;;;;;;;14.18;8.10;;;;;;;9.95;55.67;100996.78;5107608;28;20048;-60
2023/04/28 05:14:47;;;;;;;10.90;7.57;;;;;;;10.10;55.38;100995.66;5107990;28;20027;-60
2023/04/28 05:17:12;;;;;;;13.77;6.85;;;;;;;10.22;54.30;100967.09;5108391;28;20138;-60
2023/04/28 05:19:38;;;;;;;11.73;6.88;;;;;;;10.54;53.70;100997.63;5106787;28;20452;-60
2023/04/28 05:22:03;;;;;;;14.98;7.93;;;;;;;10.73;53.19;101000.59;5109013;28;20030;-60
2023/04/28 05:24:28;;;;;;;11.32;6.15;;;;;;;10.91;52.17;101005.41;5108174;28;20577;-60
2023/04/28 05:26:57;;;;;;;14.43;7.32;;;;;;;11.07;51.96;100997.84;5108277;28;20107;-60
2023/04/28 05:29:23;;;;;;;16.25;7.20;;;;;;;11.25;50.75;101000.88;5108557;28;20059;-61
2023/04/28 05:31:48;;;;;;;14.43;7.32;;;;;;;11.33;50.87;100996.66;5108402;28;20050;-61
2023/04/28 05:34:13;;;;;;;14.75;7.60;;;;;;;11.54;50.02;101008.31;5108586;28;20473;-60
2023/04/28 05:36:39;;;;;;;13.07;7.10;;;;;;;11.67;50.06;101004.69;5106961;28;20032;-61
2023/04/28 05:39:04;;;;;;;15.52;7.63;;;;;;;11.72;50.45;100992.59;5107736;28;20048;-61
2023/04/28 05:41:30;;;;;;;12.55;7.00;;;;;;;11.91;50.00;101008.03;5108125;28;20434;-60
2023/04/28 05:43:55;;;;;;;12.68;6.60;;;;;;;12.06;50.26;101009.47;5108271;28;20119;-60
2023/04/28 05:46:21;;;;;;;12.15;6.30;;;;;;;12.12;49.14;100987.47;5108258;28;20173;-61
2023/04/28 05:48:46;;;;;;;12.18;6.68;;;;;;;12.26;49.13;101000.59;5108318;28;20024;-61
2023/04/28 05:51:12;;;;;;;14.20;6.10;;;;;;;12.46;49.31;101006.00;5108438;28;20030;-61
2023/04/28 05:53:37;;;;;;;9.38;6.05;;;;;;;12.58;49.08;101004.09;5108489;28;20043;-61
2023/04/28 05:56:03;;;;;;;11.80;5.20;;;;;;;12.75;48.54;101006.19;5108857;28;20027;-61
2023/04/28 05:58:29;;;;;;;13.30;5.10;;;;;;;12.91;48.04;101007.44;5108628;28;20077;-61
2023/04/28 06:00:54;;;;;;;16.55;5.43;;;;;;;13.11;47.36;101014.69;5108773;28;20028;-60
2023/04/28 06:03:20;;;;;;;12.80;5.82;;;;;;;13.28;46.79;101014.03;5108610;28;20412;-60
2023/04/28 06:05:45;;;;;;;10.02;5.63;;;;;;;13.35;47.19;101003.59;5108579;28;20419;-61
2023/04/28 06:08:11;;;;;;;10.93;4.70;;;;;;;13.58;47.05;101018.56;5108666;28;20067;-60
2023/04/28 06:10:36;;;;;;;9.50;4.95;;;;;;;13.73;45.89;101012.66;5108372;28;20043;-61
2023/04/28 06:13:03;;;;;;;7.75;4.30;;;;;;;13.93;44.77;101015.41;5108214;28;20016;-61
2023/04/28 06:15:29;;;;;;;11.48;4.40;;;;;;;14.00;44.46;101006.63;5104242;28;20502;-60
2023/04/28 06:17:55;;;;;;;8.93;4.15;;;;;;;14.22;44.20;101011.72;5107996;28;20057;-59
2023/04/28 06:20:20;;;;;;;9.80;5.13;;;;;;;14.32;44.09;101015.31;5111430;28;20558;-59
2023/04/28 06:22:46;;;;;;;7.43;4.20;;;;;;;14.30;43.73;100995.72;5110786;28;20016;-60
2023/04/28 06:25:11;;;;;;;8.77;4.13;;;;;;;14.51;43.53;101015.31;5110614;28;20410;-60
2023/04/28 06:27:37;;;;;;;12.18;4.55;;;;;;;14.56;42.99;101004.97;5111193;28;20038;-60
2023/04/28 06:30:03;;;;;;;6.95;3.67;;;;;;;14.82;42.31;101014.16;5109070;28;20034;-60
2023/04/28 06:32:28;;;;;;;13.57;3.63;;;;;;;14.71;42.17;100979.22;5111319;28;20020;-61
2023/04/28 06:34:54;;;;;;;9.30;3.47;;;;;;;15.03;40.85;101017.50;5111394;28;20023;-62
2023/04/28 06:37:20;;;;;;;5.15;3.38;;;;;;;15.10;40.55;101005.16;5109952;28;20019;-61
2023/04/28 06:39:45;;;;;;;8.02;3.22;;;;;;;15.28;40.68;101006.06;5110869;28;20047;-61
2023/04/28 06:42:10;;;;;;;8.02;3.28;;;;;;;15.40;40.48;101015.72;5111450;28;20033;-62
2023/04/28 06:44:36;;;;;;;7.63;3.17;;;;;;;15.51;40.64;101012.00;5111306;28;20020;-62
2023/04/28 06:47:01;;;;;;;9.00;3.15;;;;;;;15.62;39.88;101009.09;5109740;28;20400;-61
2023/04/28 06:49:27;;;;;;;7.35;3.45;;;;;;;15.85;39.42;101022.06;5111179;28;20031;-61
2023/04/28 06:51:52;;;;;;;6.43;3.13;;;;;;;16.01;38.88;101013.25;5110830;28;20035;-62
2023/04/28 06:54:18;;;;;;;5.63;2.65;;;;;;;16.15;38.42;101014.59;5109902;28;20043;-61
2023/04/28 06:56:43;;;;;;;6.38;2.65;;;;;;;16.30;38.39;101000.38;5109524;28;20020;-62
2023/04/28 06:59:09;;;;;;;7.43;2.83;;;;;;;16.47;37.37;101004.13;5110873;28;20027;-61
2023/04/28 07:01:34;;;;;;;5.00;2.60;;;;;;;16.58;37.11;101002.03;5110785;28;20035;-62
2023/04/28 07:04:00;;;;;;;5.70;2.80;;;;;;;16.71;36.86;100998.91;5110793;28;20027;-62
2023/04/28 07:06:27;;;;;;;8.27;2.60;;;;;;;16.88;36.57;101000.72;5109985;28;20019;-62
2023/04/28 07:08:53;;;;;;;6.32;2.45;;;;;;;17.12;35.81;100999.03;5110427;27;20387;-62
2023/04/28 07:11:18;;;;;;;5.50;2.58;;;;;;;17.25;36.01;101002.16;5110932;28;20027;-62
2023/04/28 07:13:48;;;;;;;4.78;2.50;;;;;;;17.44;35.99;101006.53;5110553;28;20054;-62
2023/04/28 07:16:13;;;;;;;5.90;2.85;;;;;;;17.58;35.32;101003.22;5109181;28;20031;-62
2023/04/28 07:18:39;;;;;;;5.18;2.40;;;;;;;17.74;35.04;101014.13;5110460;28;20119;-62
2023/04/28 07:21:05;;;;;;;6.00;2.40;;;;;;;17.74;34.95;100995.97;5110722;28;20042;-61
2023/04/28 07:23:30;;;;;;;5.68;2.75;;;;;;;17.99;34.84;101005.03;5110733;28;20551;-62
2023/04/28 07:25:57;;;;;;;7.55;2.78;;;;;;;18.19;34.99;101011.91;5109206;28;20035;-62
2023/04/28 07:28:22;;;;;;;6.15;2.17;;;;;;;18.35;34.53;101009.22;5109112;28;20023;-62
2023/04/28 07:30:47;;;;;;;4.90;2.33;;;;;;;18.32;33.71;100974.25;5109374;28;20034;-62
2023/04/28 07:33:13;;;;;;;5.95;3.05;;;;;;;18.50;33.84;101012.97;5110635;28;20364;-61
2023/04/28 07:35:38;;;;;;;8.48;3.05;;;;;;;18.53;34.13;101001.78;5108943;28;20023;-62
2023/04/28 07:38:04;;;;;;;5.13;2.42;;;;;;;18.62;33.87;100994.47;5110051;28;20114;-61
2023/04/28 07:40:29;;;;;;;7.25;2.67;;;;;;;18.72;33.40;100997.88;5110333;28;20024;-62
2023/04/28 07:42:55;;;;;;;6.05;2.83;;;;;;;18.81;33.10;100988.69;5110394;28;20467;-61
2023/04/28 07:45:20;;;;;;;4.75;2.30;;;;;;;18.77;33.61;100980.03;5110057;28;20019;-62
2023/04/28 07:47:46;;;;;;;6.15;2.80;;;;;;;18.85;33.50;100988.19;5109980;28;20052;-62
2023/04/28 07:50:11;;;;;;;6.75;2.60;;;;;;;18.83;33.29;100979.34;5110511;28;20024;-62
2023/04/28 07:52:37;;;;;;;6.72;2.78;;;;;;;19.01;32.83;100987.31;5110025;28;20114;-62
2023/04/28 07:55:03;;;;;;;7.10;2.78;;;;;;;19.10;32.82;100987.13;5109837;28;20065;-62
2023/04/28 07:57:29;;;;;;;8.00;2.60;;;;;;;19.17;32.61;100981.84;5110097;28;20046;-62
2023/04/28 07:59:55;;;;;;;8.43;2.63;;;;;;;19.18;33.20;100983.53;5110056;28;20476;-62
2023/04/28 08:02:20;;;;;;;4.90;2.63;;;;;;;19.32;32.58;100978.25;5107556;27;20133;-62
2023/04/28 08:04:46;;;;;;;6.90;2.33;;;;;;;19.44;32.25;100984.19;5108269;28;20047;-62
2023/04/28 08:07:12;;;;;;;5.78;2.53;;;;;;;19.59;31.56;100983.28;5109851;28;20436;-62
2023/04/28 08:09:40;;;;;;;6.90;2.83;;;;;;;19.69;31.92;100961.28;5109729;28;20027;-62
2023/04/28 08:12:05;;;;;;;4.38;2.38;;;;;;;19.81;32.02;100966.16;5109955;28;20502;-62
2023/04/28 08:14:31;;;;;;;3.88;2.60;;;;;;;19.84;32.55;100970.41;5109308;28;20016;-61
2023/04/28 08:16:56;;;;;;;8.63;3.10;;;;;;;19.97;32.09;100954.31;5109028;28;20043;-62
2023/04/28 08:19:22;;;;;;;8.93;2.63;;;;;;;20.27;31.12;100952.59;5109537;28;20480;-62
2023/04/28 08:21:48;;;;;;;9.18;2.28;;;;;;;20.60;31.07;100949.44;5109699;28;20030;-63
2023/04/28 08:24:13;;;;;;;6.35;2.08;;;;;;;21.04;30.52;100944.09;5110587;28;20023;-62
2023/04/28 08:26:39;;;;;;;6.93;2.08;;;;;;;21.60;30.35;100943.44;5110201;28;20043;-62
2023/04/28 08:29:04;;;;;;;5.22;2.30;;;;;;;22.12;29.36;100953.13;5109974;27;20035;-63
2023/04/28 08:31:30;;;;;;;10.60;2.80;;;;;;;22.70;28.14;100943.81;5108837;28;20092;-62
2023/04/28 08:33:55;;;;;;;3.97;2.00;;;;;;;23.13;27.53;100941.84;5110077;28;20494;-63
2023/04/28 08:36:23;;;;;;;4.85;2.22;;;;;;;23.58;26.74;100933.94;5110211;28;20031;-63
2023/04/28 08:38:49;;;;;;;4.72;2.10;;;;;;;23.51;26.41;100924.81;5109736;28;20050;-63
2023/04/28 08:41:15;;;;;;;6.65;1.95;;;;;;;23.47;26.77;100937.25;5110167;28;20023;-62
2023/04/28 08:43:42;;;;;;;4.95;2.15;;;;;;;23.37;26.79;100928.56;5109924;28;20498;-61
2023/04/28 08:46:08;;;;;;;4.82;2.08;;;;;;;23.20;26.77;100921.69;5110396;28;20023;-61
2023/04/28 08:48:46;;;;;;;6.47;2.33;;;;;;;23.21;26.52;100923.38;5109881;28;20035;-62
2023/04/28 08:51:22;;;;;;;5.43;2.35;;;;;;;23.22;26.44;100913.28;5109998;28;20363;-61
2023/04/28 08:53:52;;;;;;;3.40;2.05;;;;;;;23.13;26.97;100909.84;5109672;28;20152;-61
2023/04/28 08:56:21;;;;;;;7.40;2.30;;;;;;;22.96;26.89;100883.00;5110039;28;20023;-61
2023/04/28 08:58:48;;;;;;;7.38;2.40;;;;;;;22.88;27.05;100900.44;5108053;28;20032;-62
2023/04/28 09:01:13;;;;;;;9.00;2.60;;;;;;;22.91;27.02;100910.13;5109969;28;20030;-62
2023/04/28 09:03:39;;;;;;;5.05;2.20;;;;;;;22.72;26.77;100910.81;5110096;28;20028;-61
2023/04/28 09:06:05;;;;;;;8.73;3.10;;;;;;;22.39;26.45;100899.59;5110070;28;20031;-61
2023/04/28 09:08:30;;;;;;;7.28;2.90;;;;;;;22.35;26.64;100887.34;5109845;28;20059;-61
2023/04/28 09:11:09;;;;;;;4.45;2.20;;;;;;;22.45;27.25;100904.25;5109539;28;20023;-61
2023/04/28 09:13:36;;;;;;;5.40;2.30;;;;;;;22.14;27.02;100906.47;5109775;28;20032;-61
2023/04/28 09:16:02;;;;;;;5.90;2.13;;;;;;;22.02;27.54;100887.03;5109753;28;20051;-61
2023/04/28 09:18:31;;;;;;;6.18;2.33;;;;;;;21.81;28.05;100903.41;5109496;28;20088;-61
2023/04/28 09:21:07;;;;;;;6.18;2.65;;;;;;;21.49;28.46;100867.47;5108388;28;20114;-61
2023/04/28 09:23:34;;;;;;;6.68;2.20;;;;;;;21.42;28.80;100888.41;5109704;28;20050;-62
2023/04/28 09:26:05;;;;;;;5.60;2.10;;;;;;;21.31;29.12;100889.72;5109510;28;20035;-61
2023/04/28 09:28:32;;;;;;;6.10;2.30;;;;;;;21.31;29.37;100892.44;5109531;28;20086;-61
2023/04/28 09:30:57;;;;;;;6.93;2.55;;;;;;;21.35;29.02;100873.81;5107822;28;20031;-61
2023/04/28 09:33:23;;;;;;;7.10;1.75;;;;;;;21.36;29.44;100883.69;5109477;28;20364;-60
2023/04/28 09:35:48;;;;;;;7.05;2.53;;;;;;;21.24;28.71;100875.13;5109907;28;20077;-61
2023/04/28 09:38:15;;;;;;;10.77;2.70;;;;;;;21.23;28.67;100878.06;5109204;28;20049;-61
2023/04/28 09:40:55;;;;;;;5.32;2.70;;;;;;;21.12;28.44;100873.09;5107878;28;20101;-62
2023/04/28 09:43:34;;;;;;;6.75;2.78;;;;;;;21.36;27.31;100872.78;5108937;28;20039;-62
2023/04/28 09:46:04;;;;;;;4.20;2.17;;;;;;;21.25;28.02;100876.00;5107717;28;20020;-61
2023/04/28 09:48:35;;;;;;;6.60;2.88;;;;;;;21.23;28.32;100853.50;5109175;28;20027;-61
2023/04/28 09:51:03;;;;;;;5.57;2.50;;;;;;;21.23;28.71;100878.06;5108100;28;20048;-61
2023/04/28 09:53:29;;;;;;;8.32;2.67;;;;;;;21.11;27.80;100868.66;5111143;27;20042;-61
2023/04/28 09:56:00;;;;;;;4.80;2.35;;;;;;;20.92;27.86;100864.59;5111106;28;20066;-61
2023/04/28 09:58:27;;;;;;;3.58;1.80;;;;;;;20.92;28.08;100878.22;5113304;28;20035;-62
2023/04/28 10:00:56;;;;;;;6.72;2.22;;;;;;;20.96;28.43;100876.00;5112746;28;20032;-61
2023/04/28 10:03:24;;;;;;;4.13;2.28;;;;;;;21.05;28.24;100875.72;5110565;27;20024;-62
2023/04/28 10:05:52;;;;;;;5.57;2.55;;;;;;;20.94;28.67;100875.34;5111361;28;20040;-61
2023/04/28 10:08:18;;;;;;;5.75;2.38;;;;;;;20.81;28.72;100853.31;5112960;28;20021;-62
2023/04/28 10:10:47;;;;;;;5.22;2.17;;;;;;;20.70;28.84;100840.16;5113013;28;20083;-61
2023/04/28 10:13:15;;;;;;;8.77;2.50;;;;;;;20.82;29.18;100877.66;5111624;28;20027;-62
2023/04/28 10:15:42;;;;;;;5.35;2.72;;;;;;;20.70;29.02;100838.25;5112863;28;20054;-61
2023/04/28 10:18:07;;;;;;;7.88;2.90;;;;;;;20.70;28.59;100840.97;5112697;28;20383;-62
2023/04/28 10:20:34;;;;;;;4.78;2.42;;;;;;;20.75;28.99;100851.31;5112936;28;20023;-61
2023/04/28 10:23:24;;;;;;;5.82;2.20;;;;;;;20.81;28.36;100865.06;5112632;28;20023;-62
2023/04/28 10:25:56;;;;;;;3.40;2.53;;;;;;;20.79;28.47;100856.22;5111123;28;20031;-61
2023/04/28 10:28:22;;;;;;;8.35;2.63;;;;;;;20.57;28.88;100834.50;5112638;28;20027;-63
2023/04/28 10:31:13;;;;;;;4.97;2.33;;;;;;;20.58;29.17;100845.22;5112350;28;20414;-61
2023/04/28 10:33:39;;;;;;;8.52;2.70;;;;;;;20.43;29.30;100829.84;5111322;28;20051;-61
2023/04/28 10:36:06;;;;;;;7.15;2.20;;;;;;;20.44;29.15;100832.38;5111239;28;20112;-62
2023/04/28 10:38:32;;;;;;;6.93;2.55;;;;;;;20.36;29.51;100823.44;5111915;28;20875;-62
2023/04/28 10:41:03;;;;;;;7.82;2.47;;;;;;;20.21;29.50;100808.97;5112304;28;20077;-62
2023/04/28 10:43:31;;;;;;;7.40;2.20;;;;;;;20.25;29.47;100810.28;5112462;28;20076;-62
2023/04/28 10:46:00;;;;;;;6.28;2.25;;;;;;;20.21;29.97;100798.91;5111292;28;20031;-61
2023/04/28 10:48:25;;;;;;;5.68;2.30;;;;;;;20.16;30.34;100796.72;5110917;28;20357;-61
2023/04/28 10:51:06;;;;;;;5.65;2.00;;;;;;;20.13;30.64;100797.09;5112070;28;20057;-62
2023/04/28 10:53:44;;;;;;;7.50;3.08;;;;;;;20.09;30.82;100805.81;5112105;28;20034;-61
2023/04/28 10:56:25;;;;;;;4.47;2.10;;;;;;;20.08;30.64;100799.50;5110958;28;20062;-62
2023/04/28 10:58:52;;;;;;;4.28;2.00;;;;;;;20.09;30.58;100793.03;5104133;28;20035;-62
2023/04/28 11:01:17;;;;;;;6.25;2.35;;;;;;;20.11;30.70;100785.56;5111106;28;20024;-61
2023/04/28 11:03:46;;;;;;;5.82;2.25;;;;;;;20.14;30.55;100785.19;5109353;28;20047;-62
2023/04/28 11:06:26;;;;;;;9.98;2.60;;;;;;;20.12;30.84;100789.13;5109771;28;20047;-61
2023/04/28 11:09:00;;;;;;;4.43;2.10;;;;;;;20.14;30.74;100787.06;5110554;28;20114;-62
2023/04/28 11:11:32;;;;;;;5.97;2.53;;;;;;;20.17;30.11;100767.63;5107942;28;20509;-62
2023/04/28 11:14:16;;;;;;;7.53;2.75;;;;;;;20.08;30.78;100769.53;5111162;28;20020;-62
2023/04/28 11:16:58;;;;;;;7.50;2.50;;;;;;;20.00;30.97;100758.72;5111553;28;20028;-62
2023/04/28 11:19:30;;;;;;;6.53;2.58;;;;;;;19.90;30.51;100758.13;5110021;28;20272;-62
2023/04/28 11:22:01;;;;;;;5.88;2.22;;;;;;;19.83;31.17;100765.34;5109004;28;20451;-63